McLeansville, North Carolina
Current Conditions -  °F | °C
As of 6:54 PM on Friday 24 Oct 2014 (Local Time) from KBUY Reporting Station
Clear Clear  
Wind Chill: 57°   Ceiling: Unl
Heat Index: 57°   Visibility: 10mi
Dew Point: 43°   Wind: 0mph
Humidity: 59%   Direction: NA
Pressure: 29.97"   Gusts: NA
Location:  36.1°N, 79.66°W
Report Text: KBUY 242254Z AUTO 00000KT 10SM CLR 14/06 A2997 RMK AO2 SLP148 T01390061
Loading
Personal Weather Stations






























Interactive Weather Map
Tropical Storm Tracking
New forecast layout! Learn more

10-Day Weather Forecast

Advertisements
Track Severe Weather on mobile